sensor_id;sensor_type;location;lat;lon;timestamp;pressure;altitude;pressure_sealevel;temperature;humidity
47104;BME280;32853;52.164;5.400;2022-12-18T00:02:01;102785.47;;;-1.23;100.00
47104;BME280;32853;52.164;5.400;2022-12-18T00:04:32;102775.63;;;-1.12;100.00
47104;BME280;32853;52.164;5.400;2022-12-18T00:07:00;102764.78;;;-1.05;100.00
47104;BME280;32853;52.164;5.400;2022-12-18T00:09:27;102762.44;;;-1.21;100.00
47104;BME280;32853;52.164;5.400;2022-12-18T00:11:53;102754.59;;;-1.24;100.00
47104;BME280;32853;52.164;5.400;2022-12-18T00:14:21;102759.28;;;-1.14;100.00
47104;BME280;32853;52.164;5.400;2022-12-18T00:16:51;102760.81;;;-1.19;100.00
47104;BME280;32853;52.164;5.400;2022-12-18T00:19:20;102763.53;;;-1.14;100.00
47104;BME280;32853;52.164;5.400;2022-12-18T00:21:46;102767.22;;;-1.30;100.00
47104;BME280;32853;52.164;5.400;2022-12-18T00:24:14;102764.75;;;-1.27;100.00
47104;BME280;32853;52.164;5.400;2022-12-18T00:26:51;102767.28;;;-1.50;100.00
47104;BME280;32853;52.164;5.400;2022-12-18T00:29:19;102768.22;;;-1.48;100.00
47104;BME280;32853;52.164;5.400;2022-12-18T00:31:44;102776.22;;;-1.61;100.00
47104;BME280;32853;52.164;5.400;2022-12-18T00:34:13;102773.13;;;-1.54;100.00
47104;BME280;32853;52.164;5.400;2022-12-18T00:36:40;102765.75;;;-1.44;100.00
47104;BME280;32853;52.164;5.400;2022-12-18T00:39:12;102763.13;;;-1.46;100.00
47104;BME280;32853;52.164;5.400;2022-12-18T00:47:51;102756.41;;;-1.65;100.00
47104;BME280;32853;52.164;5.400;2022-12-18T00:50:26;102759.53;;;-1.72;100.00
47104;BME280;32853;52.164;5.400;2022-12-18T00:53:07;102756.31;;;-1.66;100.00
47104;BME280;32853;52.164;5.400;2022-12-18T00:55:41;102767.16;;;-1.73;100.00
47104;BME280;32853;52.164;5.400;2022-12-18T00:58:11;102761.44;;;-1.66;100.00
47104;BME280;32853;52.164;5.400;2022-12-18T01:00:37;102758.16;;;-1.64;100.00
47104;BME280;32853;52.164;5.400;2022-12-18T01:03:03;102755.91;;;-1.77;100.00
47104;BME280;32853;52.164;5.400;2022-12-18T01:05:28;102751.28;;;-1.65;100.00
47104;BME280;32853;52.164;5.400;2022-12-18T01:07:54;102752.22;;;-1.63;100.00
47104;BME280;32853;52.164;5.400;2022-12-18T01:10:20;102747.97;;;-1.62;100.00
47104;BME280;32853;52.164;5.400;2022-12-18T01:12:47;102752.31;;;-1.60;100.00
47104;BME280;32853;52.164;5.400;2022-12-18T01:15:13;102748.44;;;-1.71;100.00
47104;BME280;32853;52.164;5.400;2022-12-18T01:17:39;102753.16;;;-1.61;100.00
47104;BME280;32853;52.164;5.400;2022-12-18T01:20:12;102755.97;;;-1.55;100.00
47104;BME280;32853;52.164;5.400;2022-12-18T01:25:49;102754.66;;;-1.66;100.00
47104;BME280;32853;52.164;5.400;2022-12-18T01:28:14;102766.91;;;-1.80;100.00
47104;BME280;32853;52.164;5.400;2022-12-18T01:30:53;102777.91;;;-1.82;100.00
47104;BME280;32853;52.164;5.400;2022-12-18T01:33:21;102775.09;;;-1.88;100.00
47104;BME280;32853;52.164;5.400;2022-12-18T01:35:49;102773.59;;;-1.83;100.00
47104;BME280;32853;52.164;5.400;2022-12-18T01:38:15;102774.53;;;-1.81;100.00
47104;BME280;32853;52.164;5.400;2022-12-18T01:40:43;102779.88;;;-1.77;100.00
47104;BME280;32853;52.164;5.400;2022-12-18T01:43:11;102769.97;;;-1.88;100.00
47104;BME280;32853;52.164;5.400;2022-12-18T01:45:36;102780.94;;;-1.91;100.00
47104;BME280;32853;52.164;5.400;2022-12-18T01:48:05;102778.53;;;-1.88;100.00
47104;BME280;32853;52.164;5.400;2022-12-18T01:50:34;102778.97;;;-1.98;100.00
47104;BME280;32853;52.164;5.400;2022-12-18T01:53:03;102777.56;;;-1.90;100.00
47104;BME280;32853;52.164;5.400;2022-12-18T01:55:31;102781.22;;;-1.85;100.00
47104;BME280;32853;52.164;5.400;2022-12-18T01:57:58;102781.75;;;-1.72;100.00
47104;BME280;32853;52.164;5.400;2022-12-18T02:00:28;102769.03;;;-1.69;100.00
47104;BME280;32853;52.164;5.400;2022-12-18T02:02:53;102778.28;;;-1.73;100.00
47104;BME280;32853;52.164;5.400;2022-12-18T02:06:07;102782.50;;;-1.75;100.00
47104;BME280;32853;52.164;5.400;2022-12-18T02:10:33;102785.00;;;-1.77;100.00
47104;BME280;32853;52.164;5.400;2022-12-18T02:13:25;102792.53;;;-1.80;100.00
47104;BME280;32853;52.164;5.400;2022-12-18T02:15:57;102786.28;;;-1.86;100.00
47104;BME280;32853;52.164;5.400;2022-12-18T02:24:18;102785.66;;;-1.81;100.00
47104;BME280;32853;52.164;5.400;2022-12-18T02:27:03;102786.75;;;-1.76;100.00
47104;BME280;32853;52.164;5.400;2022-12-18T02:29:35;102795.38;;;-1.73;100.00
47104;BME280;32853;52.164;5.400;2022-12-18T02:32:10;102794.56;;;-1.72;100.00
47104;BME280;32853;52.164;5.400;2022-12-18T02:34:38;102792.41;;;-1.83;100.00
47104;BME280;32853;52.164;5.400;2022-12-18T02:37:05;102794.09;;;-1.83;100.00
47104;BME280;32853;52.164;5.400;2022-12-18T02:39:39;102783.91;;;-1.82;100.00
47104;BME280;32853;52.164;5.400;2022-12-18T02:42:05;102781.41;;;-1.80;100.00
47104;BME280;32853;52.164;5.400;2022-12-18T02:44:33;102779.88;;;-1.77;100.00
47104;BME280;32853;52.164;5.400;2022-12-18T02:47:02;102771.84;;;-1.84;100.00
47104;BME280;32853;52.164;5.400;2022-12-18T03:09:18;102746.75;;;-1.91;100.00
47104;BME280;32853;52.164;5.400;2022-12-18T03:11:54;102747.88;;;-1.85;100.00
47104;BME280;32853;52.164;5.400;2022-12-18T03:14:42;102757.88;;;-1.91;100.00
47104;BME280;32853;52.164;5.400;2022-12-18T03:17:17;102747.63;;;-1.91;100.00
47104;BME280;32853;52.164;5.400;2022-12-18T03:19:45;102750.13;;;-1.92;100.00
47104;BME280;32853;52.164;5.400;2022-12-18T03:22:11;102741.38;;;-1.97;100.00
47104;BME280;32853;52.164;5.400;2022-12-18T03:24:40;102738.81;;;-1.97;100.00
47104;BME280;32853;52.164;5.400;2022-12-18T03:27:06;102739.69;;;-1.97;100.00
47104;BME280;32853;52.164;5.400;2022-12-18T03:29:38;102731.78;;;-2.01;100.00
47104;BME280;32853;52.164;5.400;2022-12-18T03:32:12;102740.06;;;-2.09;100.00
47104;BME280;32853;52.164;5.400;2022-12-18T03:34:49;102729.16;;;-2.03;100.00
47104;BME280;32853;52.164;5.400;2022-12-18T03:37:18;102724.72;;;-2.07;100.00
47104;BME280;32853;52.164;5.400;2022-12-18T03:39:43;102722.09;;;-2.09;100.00
47104;BME280;32853;52.164;5.400;2022-12-18T03:45:08;102718.47;;;-2.14;100.00
47104;BME280;32853;52.164;5.400;2022-12-18T03:58:45;102715.44;;;-2.24;100.00
47104;BME280;32853;52.164;5.400;2022-12-18T04:01:12;102712.13;;;-2.22;100.00
47104;BME280;32853;52.164;5.400;2022-12-18T04:03:42;102703.56;;;-2.22;100.00
47104;BME280;32853;52.164;5.400;2022-12-18T04:09:17;102699.13;;;-2.26;100.00
47104;BME280;32853;52.164;5.400;2022-12-18T04:11:44;102694.88;;;-2.26;100.00
47104;BME280;32853;52.164;5.400;2022-12-18T04:17:13;102689.34;;;-2.35;100.00
47104;BME280;32853;52.164;5.400;2022-12-18T04:22:32;102682.25;;;-2.42;100.00
47104;BME280;32853;52.164;5.400;2022-12-18T04:24:58;102677.38;;;-2.55;100.00
47104;BME280;32853;52.164;5.400;2022-12-18T04:30:35;102686.16;;;-2.50;100.00
47104;BME280;32853;52.164;5.400;2022-12-18T04:33:01;102678.81;;;-2.62;100.00
47104;BME280;32853;52.164;5.400;2022-12-18T04:35:26;102674.22;;;-2.50;100.00
47104;BME280;32853;52.164;5.400;2022-12-18T04:37:51;102680.75;;;-2.56;100.00
47104;BME280;32853;52.164;5.400;2022-12-18T04:40:21;102680.09;;;-2.52;100.00
47104;BME280;32853;52.164;5.400;2022-12-18T04:42:54;102676.66;;;-2.53;100.00
47104;BME280;32853;52.164;5.400;2022-12-18T04:45:40;102688.91;;;-2.46;100.00
47104;BME280;32853;52.164;5.400;2022-12-18T04:48:06;102698.84;;;-2.53;100.00
47104;BME280;32853;52.164;5.400;2022-12-18T04:50:32;102704.22;;;-2.47;100.00
47104;BME280;32853;52.164;5.400;2022-12-18T04:52:57;102700.31;;;-2.58;100.00
47104;BME280;32853;52.164;5.400;2022-12-18T04:55:22;102706.88;;;-2.65;100.00
47104;BME280;32853;52.164;5.400;2022-12-18T04:57:53;102712.31;;;-2.57;100.00
47104;BME280;32853;52.164;5.400;2022-12-18T05:00:34;102711.16;;;-2.64;100.00
47104;BME280;32853;52.164;5.400;2022-12-18T05:03:00;102722.53;;;-2.57;100.00
47104;BME280;32853;52.164;5.400;2022-12-18T05:05:27;102720.78;;;-2.58;100.00
47104;BME280;32853;52.164;5.400;2022-12-18T05:07:56;102725.84;;;-2.60;100.00
47104;BME280;32853;52.164;5.400;2022-12-18T05:10:26;102730.78;;;-2.65;100.00
47104;BME280;32853;52.164;5.400;2022-12-18T05:12:54;102731.72;;;-2.63;100.00
47104;BME280;32853;52.164;5.400;2022-12-18T05:15:26;102732.38;;;-2.67;100.00
47104;BME280;32853;52.164;5.400;2022-12-18T05:18:12;102738.63;;;-2.79;100.00
47104;BME280;32853;52.164;5.400;2022-12-18T05:20:38;102735.50;;;-2.74;100.00
47104;BME280;32853;52.164;5.400;2022-12-18T05:23:04;102736.44;;;-2.72;100.00
47104;BME280;32853;52.164;5.400;2022-12-18T05:28:19;102744.81;;;-2.76;100.00
47104;BME280;32853;52.164;5.400;2022-12-18T05:30:51;102761.16;;;-2.72;100.00
47104;BME280;32853;52.164;5.400;2022-12-18T05:33:30;102762.53;;;-2.61;100.00
47104;BME280;32853;52.164;5.400;2022-12-18T05:35:56;102757.53;;;-2.58;100.00
47104;BME280;32853;52.164;5.400;2022-12-18T05:38:23;102750.78;;;-2.56;100.00
47104;BME280;32853;52.164;5.400;2022-12-18T05:40:49;102748.31;;;-2.54;100.00
47104;BME280;32853;52.164;5.400;2022-12-18T05:43:15;102737.09;;;-2.56;100.00
47104;BME280;32853;52.164;5.400;2022-12-18T05:45:45;102731.25;;;-2.54;100.00
47104;BME280;32853;52.164;5.400;2022-12-18T05:48:10;102729.09;;;-2.64;100.00
47104;BME280;32853;52.164;5.400;2022-12-18T05:50:39;102727.94;;;-2.71;100.00
47104;BME280;32853;52.164;5.400;2022-12-18T05:53:04;102727.94;;;-2.71;100.00
47104;BME280;32853;52.164;5.400;2022-12-18T05:55:36;102727.47;;;-2.62;100.00
47104;BME280;32853;52.164;5.400;2022-12-18T05:58:02;102721.59;;;-2.59;100.00
47104;BME280;32853;52.164;5.400;2022-12-18T06:00:27;102719.03;;;-2.59;100.00
47104;BME280;32853;52.164;5.400;2022-12-18T06:02:53;102721.66;;;-2.58;100.00
47104;BME280;32853;52.164;5.400;2022-12-18T06:05:18;102721.66;;;-2.58;100.00
47104;BME280;32853;52.164;5.400;2022-12-18T06:07:46;102722.13;;;-2.67;100.00
47104;BME280;32853;52.164;5.400;2022-12-18T06:10:14;102719.66;;;-2.65;100.00
47104;BME280;32853;52.164;5.400;2022-12-18T06:12:40;102709.88;;;-2.74;100.00
47104;BME280;32853;52.164;5.400;2022-12-18T06:15:08;102711.97;;;-2.84;100.00
47104;BME280;32853;52.164;5.400;2022-12-18T06:17:36;102700.03;;;-2.84;100.00
47104;BME280;32853;52.164;5.400;2022-12-18T06:20:02;102702.31;;;-2.90;100.00
47104;BME280;32853;52.164;5.400;2022-12-18T06:22:27;102700.72;;;-2.88;100.00
47104;BME280;32853;52.164;5.400;2022-12-18T06:24:53;102701.66;;;-2.86;100.00
47104;BME280;32853;52.164;5.400;2022-12-18T06:27:21;102694.44;;;-2.95;100.00
47104;BME280;32853;52.164;5.400;2022-12-18T06:29:49;102693.75;;;-2.90;100.00
47104;BME280;32853;52.164;5.400;2022-12-18T06:32:14;102684.56;;;-2.87;100.00
47104;BME280;32853;52.164;5.400;2022-12-18T06:34:43;102688.50;;;-2.94;100.00
47104;BME280;32853;52.164;5.400;2022-12-18T06:37:11;102675.78;;;-2.92;100.00
47104;BME280;32853;52.164;5.400;2022-12-18T06:39:36;102676.22;;;-3.01;100.00
47104;BME280;32853;52.164;5.400;2022-12-18T06:42:04;102678.59;;;-3.05;100.00
47104;BME280;32853;52.164;5.400;2022-12-18T06:44:30;102675.03;;;-3.09;100.00
47104;BME280;32853;52.164;5.400;2022-12-18T06:46:58;102676.47;;;-2.96;100.00
47104;BME280;32853;52.164;5.400;2022-12-18T06:49:24;102671.13;;;-3.01;100.00
47104;BME280;32853;52.164;5.400;2022-12-18T06:54:30;102663.50;;;-3.18;100.00
47104;BME280;32853;52.164;5.400;2022-12-18T06:57:05;102664.50;;;-3.15;100.00
47104;BME280;32853;52.164;5.400;2022-12-18T07:05:41;102647.72;;;-3.28;100.00
47104;BME280;32853;52.164;5.400;2022-12-18T07:08:08;102645.22;;;-3.26;100.00
47104;BME280;32853;52.164;5.400;2022-12-18T07:10:40;102643.47;;;-3.27;100.00
47104;BME280;32853;52.164;5.400;2022-12-18T07:13:17;102643.78;;;-3.21;100.00
47104;BME280;32853;52.164;5.400;2022-12-18T07:15:43;102643.63;;;-3.24;100.00
47104;BME280;32853;52.164;5.400;2022-12-18T07:18:10;102637.38;;;-3.31;100.00
47104;BME280;32853;52.164;5.400;2022-12-18T07:20:36;102639.25;;;-3.27;100.00
47104;BME280;32853;52.164;5.400;2022-12-18T07:23:02;102640.94;;;-3.27;100.00
47104;BME280;32853;52.164;5.400;2022-12-18T07:25:27;102635.13;;;-3.23;100.00
47104;BME280;32853;52.164;5.400;2022-12-18T07:27:53;102638.72;;;-3.19;100.00
47104;BME280;32853;52.164;5.400;2022-12-18T07:30:22;102629.28;;;-3.20;100.00
47104;BME280;32853;52.164;5.400;2022-12-18T07:35:42;102621.47;;;-3.24;100.00
47104;BME280;32853;52.164;5.400;2022-12-18T07:41:15;102619.53;;;-3.29;100.00
47104;BME280;32853;52.164;5.400;2022-12-18T07:43:41;102614.53;;;-3.26;100.00
47104;BME280;32853;52.164;5.400;2022-12-18T07:46:06;102610.28;;;-3.26;100.00
47104;BME280;32853;52.164;5.400;2022-12-18T07:48:35;102608.72;;;-3.22;100.00
47104;BME280;32853;52.164;5.400;2022-12-18T07:51:01;102595.75;;;-3.27;100.00
47104;BME280;32853;52.164;5.400;2022-12-18T07:53:27;102598.44;;;-3.24;100.00
47104;BME280;32853;52.164;5.400;2022-12-18T07:56:00;102590.69;;;-3.25;100.00
47104;BME280;32853;52.164;5.400;2022-12-18T07:58:27;102590.34;;;-3.33;100.00
47104;BME280;32853;52.164;5.400;2022-12-18T08:00:54;102588.19;;;-3.24;100.00
47104;BME280;32853;52.164;5.400;2022-12-18T08:03:36;102585.50;;;-3.27;100.00
47104;BME280;32853;52.164;5.400;2022-12-18T08:06:03;102584.19;;;-3.18;100.00
47104;BME280;32853;52.164;5.400;2022-12-18T08:08:36;102585.78;;;-3.40;100.00
47104;BME280;32853;52.164;5.400;2022-12-18T08:11:05;102571.38;;;-3.18;100.00
47104;BME280;32853;52.164;5.400;2022-12-18T08:13:30;102569.06;;;-3.12;100.00
47104;BME280;32853;52.164;5.400;2022-12-18T08:15:59;102568.41;;;-3.08;100.00
47104;BME280;32853;52.164;5.400;2022-12-18T08:18:41;102569.69;;;-3.18;100.00
47104;BME280;32853;52.164;5.400;2022-12-18T08:21:07;102586.28;;;-3.10;100.00
47104;BME280;32853;52.164;5.400;2022-12-18T08:23:33;102584.50;;;-3.11;100.00
47104;BME280;32853;52.164;5.400;2022-12-18T08:26:01;102588.16;;;-3.06;100.00
47104;BME280;32853;52.164;5.400;2022-12-18T08:28:29;102590.91;;;-3.01;100.00
47104;BME280;32853;52.164;5.400;2022-12-18T08:34:04;102608.69;;;-2.85;100.00
47104;BME280;32853;52.164;5.400;2022-12-18T08:36:31;102601.81;;;-2.86;100.00
47104;BME280;32853;52.164;5.400;2022-12-18T08:39:00;102604.78;;;-2.77;100.00
47104;BME280;32853;52.164;5.400;2022-12-18T08:41:25;102601.25;;;-2.79;100.00
47104;BME280;32853;52.164;5.400;2022-12-18T08:43:53;102595.31;;;-2.78;100.00
47104;BME280;32853;52.164;5.400;2022-12-18T08:46:41;102591.06;;;-2.77;100.00
47104;BME280;32853;52.164;5.400;2022-12-18T08:49:14;102590.34;;;-2.75;100.00
47104;BME280;32853;52.164;5.400;2022-12-18T08:51:57;102594.78;;;-2.71;100.00
47104;BME280;32853;52.164;5.400;2022-12-18T08:54:22;102595.94;;;-2.64;100.00
47104;BME280;32853;52.164;5.400;2022-12-18T08:56:57;102596.09;;;-2.59;100.00
47104;BME280;32853;52.164;5.400;2022-12-18T09:02:15;102608.09;;;-2.58;100.00
47104;BME280;32853;52.164;5.400;2022-12-18T09:04:42;102606.63;;;-2.53;100.00
47104;BME280;32853;52.164;5.400;2022-12-18T09:07:08;102607.56;;;-2.51;100.00
47104;BME280;32853;52.164;5.400;2022-12-18T09:09:34;102597.06;;;-2.37;100.00
47104;BME280;32853;52.164;5.400;2022-12-18T09:15:05;102595.06;;;-2.23;100.00
47104;BME280;32853;52.164;5.400;2022-12-18T09:17:30;102589.88;;;-2.24;100.00
47104;BME280;32853;52.164;5.400;2022-12-18T09:19:59;102578.84;;;-2.22;100.00
47104;BME280;32853;52.164;5.400;2022-12-18T09:22:24;102585.50;;;-2.27;100.00
47104;BME280;32853;52.164;5.400;2022-12-18T09:24:49;102582.00;;;-2.29;100.00
47104;BME280;32853;52.164;5.400;2022-12-18T09:30:30;102582.97;;;-2.05;100.00
47104;BME280;32853;52.164;5.400;2022-12-18T09:33:20;102586.72;;;-1.96;100.00
47104;BME280;32853;52.164;5.400;2022-12-18T09:36:09;102578.44;;;-1.89;100.00
47104;BME280;32853;52.164;5.400;2022-12-18T09:38:35;102565.97;;;-1.80;100.00
47104;BME280;32853;52.164;5.400;2022-12-18T09:41:05;102561.78;;;-1.78;100.00
47104;BME280;32853;52.164;5.400;2022-12-18T09:43:46;102522.13;;;-1.88;100.00
47104;BME280;32853;52.164;5.400;2022-12-18T09:46:18;102553.97;;;-1.59;100.00
47104;BME280;32853;52.164;5.400;2022-12-18T09:48:46;102553.00;;;-1.62;100.00
47104;BME280;32853;52.164;5.400;2022-12-18T09:51:14;102558.28;;;-1.58;100.00
47104;BME280;32853;52.164;5.400;2022-12-18T09:53:53;102558.56;;;-1.50;100.00
47104;BME280;32853;52.164;5.400;2022-12-18T09:56:40;102537.34;;;-1.46;100.00
47104;BME280;32853;52.164;5.400;2022-12-18T10:01:57;102535.53;;;-1.49;100.00
47104;BME280;32853;52.164;5.400;2022-12-18T10:04:25;102534.56;;;-1.28;100.00
47104;BME280;32853;52.164;5.400;2022-12-18T10:06:59;102537.28;;;-1.24;100.00
47104;BME280;32853;52.164;5.400;2022-12-18T10:15:28;102538.78;;;-1.06;100.00
47104;BME280;32853;52.164;5.400;2022-12-18T10:21:19;102525.47;;;-0.95;100.00
47104;BME280;32853;52.164;5.400;2022-12-18T10:26:49;102528.13;;;-0.92;100.00
47104;BME280;32853;52.164;5.400;2022-12-18T10:29:15;102520.47;;;-0.90;100.00
47104;BME280;32853;52.164;5.400;2022-12-18T10:31:50;102528.41;;;-0.84;100.00
47104;BME280;32853;52.164;5.400;2022-12-18T10:34:15;102523.06;;;-0.65;100.00
47104;BME280;32853;52.164;5.400;2022-12-18T10:36:42;102505.22;;;-0.60;100.00
47104;BME280;32853;52.164;5.400;2022-12-18T10:44:40;102523.53;;;-0.51;100.00
47104;BME280;32853;52.164;5.400;2022-12-18T10:47:13;102507.47;;;-0.44;100.00
47104;BME280;32853;52.164;5.400;2022-12-18T10:49:54;102502.25;;;-0.45;100.00
47104;BME280;32853;52.164;5.400;2022-12-18T10:52:21;102498.28;;;-0.36;100.00
47104;BME280;32853;52.164;5.400;2022-12-18T11:01:14;102483.75;;;-0.35;100.00
47104;BME280;32853;52.164;5.400;2022-12-18T11:12:38;102467.59;;;-0.03;100.00
47104;BME280;32853;52.164;5.400;2022-12-18T11:17:58;102457.78;;;-0.16;100.00
47104;BME280;32853;52.164;5.400;2022-12-18T11:20:34;102455.16;;;0.11;100.00
47104;BME280;32853;52.164;5.400;2022-12-18T11:25:25;102442.53;;;-0.10;100.00
47104;BME280;32853;52.164;5.400;2022-12-18T11:27:54;102441.69;;;-0.10;100.00
47104;BME280;32853;52.164;5.400;2022-12-18T11:30:36;102435.47;;;0.12;100.00
47104;BME280;32853;52.164;5.400;2022-12-18T11:33:14;102439.19;;;0.23;100.00
47104;BME280;32853;52.164;5.400;2022-12-18T11:41:29;102448.69;;;0.25;100.00
47104;BME280;32853;52.164;5.400;2022-12-18T11:46:00;102440.53;;;0.40;100.00
47104;BME280;32853;52.164;5.400;2022-12-18T11:48:30;102437.09;;;0.40;100.00
47104;BME280;32853;52.164;5.400;2022-12-18T11:51:00;102436.25;;;0.41;100.00
47104;BME280;32853;52.164;5.400;2022-12-18T11:58:44;102423.81;;;0.56;100.00
47104;BME280;32853;52.164;5.400;2022-12-18T12:09:27;102396.41;;;0.58;100.00
47104;BME280;32853;52.164;5.400;2022-12-18T12:12:04;102388.56;;;0.55;100.00
47104;BME280;32853;52.164;5.400;2022-12-18T12:19:58;102378.78;;;0.75;100.00
47104;BME280;32853;52.164;5.400;2022-12-18T12:25:23;102366.13;;;0.82;100.00
47104;BME280;32853;52.164;5.400;2022-12-18T12:30:33;102369.41;;;0.77;100.00
47104;BME280;32853;52.164;5.400;2022-12-18T12:33:09;102366.91;;;0.80;100.00
47104;BME280;32853;52.164;5.400;2022-12-18T12:38:13;102357.50;;;0.80;100.00
47104;BME280;32853;52.164;5.400;2022-12-18T12:40:42;102362.78;;;0.86;100.00
47104;BME280;32853;52.164;5.400;2022-12-18T12:43:32;102350.03;;;0.91;100.00
47104;BME280;32853;52.164;5.400;2022-12-18T12:46:08;102346.53;;;0.89;100.00
47104;BME280;32853;52.164;5.400;2022-12-18T12:48:53;102341.53;;;0.95;100.00
47104;BME280;32853;52.164;5.400;2022-12-18T12:53:47;102332.16;;;0.99;100.00
47104;BME280;32853;52.164;5.400;2022-12-18T12:56:13;102330.34;;;0.95;100.00
47104;BME280;32853;52.164;5.400;2022-12-18T12:58:51;102327.16;;;1.05;100.00
47104;BME280;32853;52.164;5.400;2022-12-18T13:09:23;102324.59;;;1.06;100.00
47104;BME280;32853;52.164;5.400;2022-12-18T13:11:48;102330.78;;;1.13;100.00
47104;BME280;32853;52.164;5.400;2022-12-18T13:14:34;102329.06;;;1.13;100.00
47104;BME280;32853;52.164;5.400;2022-12-18T13:17:16;102333.72;;;1.30;100.00
47104;BME280;32853;52.164;5.400;2022-12-18T13:38:22;102303.38;;;1.16;100.00
47104;BME280;32853;52.164;5.400;2022-12-18T13:43:18;102292.66;;;1.37;100.00
47104;BME280;32853;52.164;5.400;2022-12-18T13:48:27;102283.41;;;1.47;100.00
47104;BME280;32853;52.164;5.400;2022-12-18T13:50:55;102276.56;;;1.48;100.00
47104;BME280;32853;52.164;5.400;2022-12-18T13:53:44;102262.75;;;1.45;100.00
47104;BME280;32853;52.164;5.400;2022-12-18T13:56:07;102264.25;;;1.34;100.00
47104;BME280;32853;52.164;5.400;2022-12-18T13:58:32;102259.94;;;1.33;100.00
47104;BME280;32853;52.164;5.400;2022-12-18T14:00:58;102258.97;;;1.30;100.00
47104;BME280;32853;52.164;5.400;2022-12-18T14:03:25;102264.47;;;1.45;100.00
47104;BME280;32853;52.164;5.400;2022-12-18T14:05:55;102256.69;;;1.43;100.00
47104;BME280;32853;52.164;5.400;2022-12-18T14:08:21;102254.00;;;1.37;100.00
47104;BME280;32853;52.164;5.400;2022-12-18T14:10:47;102254.00;;;1.37;100.00
47104;BME280;32853;52.164;5.400;2022-12-18T14:15:50;102247.63;;;1.22;100.00
47104;BME280;32853;52.164;5.400;2022-12-18T14:20:41;102241.63;;;1.21;100.00
47104;BME280;32853;52.164;5.400;2022-12-18T14:23:27;102238.91;;;1.13;100.00
47104;BME280;32853;52.164;5.400;2022-12-18T14:25:53;102232.47;;;1.34;100.00
47104;BME280;32853;52.164;5.400;2022-12-18T14:28:42;102222.69;;;1.19;100.00
47104;BME280;32853;52.164;5.400;2022-12-18T14:31:16;102219.59;;;1.35;100.00
47104;BME280;32853;52.164;5.400;2022-12-18T14:33:58;102216.28;;;1.42;100.00
47104;BME280;32853;52.164;5.400;2022-12-18T14:36:35;102212.72;;;1.36;100.00
47104;BME280;32853;52.164;5.400;2022-12-18T14:39:02;102196.59;;;1.46;100.00
47104;BME280;32853;52.164;5.400;2022-12-18T14:41:28;102209.53;;;1.48;100.00
47104;BME280;32853;52.164;5.400;2022-12-18T14:43:54;102201.22;;;1.64;100.00
47104;BME280;32853;52.164;5.400;2022-12-18T14:49:21;102212.00;;;1.43;100.00
47104;BME280;32853;52.164;5.400;2022-12-18T14:51:49;102196.53;;;1.43;100.00
47104;BME280;32853;52.164;5.400;2022-12-18T14:54:17;102190.53;;;1.44;100.00
47104;BME280;32853;52.164;5.400;2022-12-18T14:56:50;102189.81;;;1.51;100.00
47104;BME280;32853;52.164;5.400;2022-12-18T14:59:21;102189.59;;;1.40;100.00
47104;BME280;32853;52.164;5.400;2022-12-18T15:04:26;102189.56;;;1.37;100.00
47104;BME280;32853;52.164;5.400;2022-12-18T15:09:33;102187.91;;;1.41;100.00
47104;BME280;32853;52.164;5.400;2022-12-18T15:11:59;102192.22;;;1.42;100.00
47104;BME280;32853;52.164;5.400;2022-12-18T15:17:21;102183.41;;;1.31;100.00
47104;BME280;32853;52.164;5.400;2022-12-18T15:19:47;102184.44;;;1.39;100.00
47104;BME280;32853;52.164;5.400;2022-12-18T15:22:16;102177.50;;;1.35;100.00
47104;BME280;32853;52.164;5.400;2022-12-18T15:24:42;102180.56;;;1.17;100.00
47104;BME280;32853;52.164;5.400;2022-12-18T15:27:19;102176.56;;;1.33;100.00
47104;BME280;32853;52.164;5.400;2022-12-18T15:29:58;102181.97;;;1.45;100.00
47104;BME280;32853;52.164;5.400;2022-12-18T15:32:25;102174.75;;;1.27;100.00
47104;BME280;32853;52.164;5.400;2022-12-18T15:34:50;102179.25;;;1.37;100.00
47104;BME280;32853;52.164;5.400;2022-12-18T15:37:24;102188.16;;;1.55;100.00
47104;BME280;32853;52.164;5.400;2022-12-18T15:39:50;102174.88;;;1.33;100.00
47104;BME280;32853;52.164;5.400;2022-12-18T15:42:15;102171.31;;;1.27;100.00
47104;BME280;32853;52.164;5.400;2022-12-18T15:44:59;102185.94;;;1.29;100.00
47104;BME280;32853;52.164;5.400;2022-12-18T15:47:24;102179.00;;;1.25;100.00
47104;BME280;32853;52.164;5.400;2022-12-18T15:49:50;102180.31;;;1.49;100.00
47104;BME280;32853;52.164;5.400;2022-12-18T15:52:28;102170.53;;;1.32;100.00
47104;BME280;32853;52.164;5.400;2022-12-18T15:54:53;102160.72;;;1.57;100.00
47104;BME280;32853;52.164;5.400;2022-12-18T15:57:37;102152.13;;;1.56;100.00
47104;BME280;32853;52.164;5.400;2022-12-18T16:02:40;102137.31;;;1.46;100.00
47104;BME280;32853;52.164;5.400;2022-12-18T16:05:09;102148.38;;;1.42;100.00
47104;BME280;32853;52.164;5.400;2022-12-18T16:07:39;102143.47;;;1.54;100.00
47104;BME280;32853;52.164;5.400;2022-12-18T16:10:04;102135.72;;;1.54;100.00
47104;BME280;32853;52.164;5.400;2022-12-18T16:12:29;102132.91;;;1.40;100.00
47104;BME280;32853;52.164;5.400;2022-12-18T16:14:54;102131.38;;;1.52;100.00
47104;BME280;32853;52.164;5.400;2022-12-18T16:17:20;102134.06;;;1.56;100.00
47104;BME280;32853;52.164;5.400;2022-12-18T16:19:45;102122.22;;;1.67;100.00
47104;BME280;32853;52.164;5.400;2022-12-18T16:22:28;102124.72;;;1.63;100.00
47104;BME280;32853;52.164;5.400;2022-12-18T16:24:58;102114.97;;;1.45;100.00
47104;BME280;32853;52.164;5.400;2022-12-18T16:27:24;102109.91;;;1.53;100.00
47104;BME280;32853;52.164;5.400;2022-12-18T16:29:49;102103.22;;;1.62;100.00
47104;BME280;32853;52.164;5.400;2022-12-18T16:32:16;102093.53;;;1.49;100.00
47104;BME280;32853;52.164;5.400;2022-12-18T16:34:42;102087.53;;;1.50;100.00
47104;BME280;32853;52.164;5.400;2022-12-18T16:37:19;102075.69;;;1.61;100.00
47104;BME280;32853;52.164;5.400;2022-12-18T16:39:44;102079.69;;;1.44;100.00